Time;durP1;ratioP1;P1;durP2;ratioP2;P2;SDS_P1;SDS_P2;PMS_P1;PMS_P2;Temp;Humidity;BMP_temperature;BMP_pressure;BME280_temperature;BME280_humidity;BME280_pressure;Samples;Min_cycle;Max_cycle;Signal;HPM_P1;HPM_P2
2020/12/16 00:02:23;;;;;;;62.97;37.37;;;2.90;99.90;;;;;;5025559;28;20010;-85
2020/12/16 00:04:49;;;;;;;65.43;33.97;;;2.90;99.90;;;;;;5026979;28;20367;-85
2020/12/16 00:07:15;;;;;;;60.50;35.33;;;2.80;99.90;;;;;;4976669;28;20081;-89
2020/12/16 00:09:43;;;;;;;64.70;33.43;;;2.70;99.90;;;;;;5018418;28;20425;-89
2020/12/16 00:12:09;;;;;;;58.07;31.27;;;2.70;99.90;;;;;;5029203;28;20102;-89
2020/12/16 00:14:34;;;;;;;59.73;32.03;;;2.80;99.90;;;;;;5024164;28;20025;-89
2020/12/16 00:17:00;;;;;;;52.23;31.37;;;2.70;99.90;;;;;;5019632;28;20036;-90
2020/12/16 00:19:25;;;;;;;56.37;30.43;;;2.70;99.90;;;;;;5007942;28;20018;-89
2020/12/16 00:21:51;;;;;;;53.97;30.43;;;2.60;99.90;;;;;;5014615;28;20026;-89
2020/12/16 00:24:17;;;;;;;52.90;29.47;;;2.60;99.90;;;;;;5033411;28;20521;-89
2020/12/16 00:26:43;;;;;;;50.93;28.73;;;2.60;99.90;;;;;;5033965;28;20022;-89
2020/12/16 00:29:10;;;;;;;51.93;29.77;;;2.60;99.90;;;;;;5033522;28;20051;-89
2020/12/16 00:31:37;;;;;;;49.50;29.00;;;2.50;99.90;;;;;;5033688;28;20025;-89
2020/12/16 00:34:05;;;;;;;48.53;28.00;;;2.50;99.90;;;;;;5030818;28;20029;-90
2020/12/16 00:36:34;;;;;;;44.87;26.50;;;2.40;99.90;;;;;;5022901;28;20110;-90
2020/12/16 00:38:59;;;;;;;49.03;30.23;;;2.40;99.90;;;;;;5000510;28;20351;-90
2020/12/16 00:41:29;;;;;;;47.90;27.83;;;2.40;99.90;;;;;;5014112;28;20054;-89
2020/12/16 00:43:55;;;;;;;51.03;28.87;;;2.40;99.90;;;;;;5013425;28;20030;-89
2020/12/16 00:46:20;;;;;;;55.20;29.13;;;2.30;99.90;;;;;;5020872;28;20044;-89
2020/12/16 00:48:46;;;;;;;51.90;27.33;;;2.30;99.90;;;;;;5015042;28;20046;-89
2020/12/16 00:51:13;;;;;;;50.47;27.67;;;2.30;99.90;;;;;;5006145;28;20028;-89
2020/12/16 00:53:39;;;;;;;57.67;29.57;;;2.30;99.90;;;;;;5033847;28;20369;-89
2020/12/16 00:56:05;;;;;;;53.03;29.10;;;2.30;99.90;;;;;;5033383;28;20033;-90
2020/12/16 00:58:30;;;;;;;54.80;29.77;;;2.30;99.90;;;;;;5028801;28;20060;-90
2020/12/16 01:00:56;;;;;;;50.10;27.40;;;2.30;99.90;;;;;;5005865;28;20025;-90
2020/12/16 01:03:21;;;;;;;46.97;25.50;;;2.30;99.90;;;;;;5031812;28;20455;-89
2020/12/16 01:05:47;;;;;;;49.47;27.47;;;2.40;99.90;;;;;;5013836;28;20446;-90
2020/12/16 01:08:13;;;;;;;48.77;27.70;;;2.30;99.90;;;;;;5027331;28;20044;-89
2020/12/16 01:10:38;;;;;;;49.50;28.37;;;2.30;99.90;;;;;;5033550;28;20021;-90
2020/12/16 01:13:04;;;;;;;49.63;27.63;;;2.30;99.90;;;;;;5033509;28;20455;-89
2020/12/16 01:15:29;;;;;;;49.93;27.17;;;2.30;99.90;;;;;;5015436;28;20470;-90
2020/12/16 01:17:55;;;;;;;45.37;26.30;;;2.30;99.90;;;;;;5023700;28;20025;-89
2020/12/16 01:20:21;;;;;;;45.90;26.10;;;2.20;99.90;;;;;;5019009;28;20467;-89
2020/12/16 01:22:47;;;;;;;55.53;29.10;;;2.20;99.90;;;;;;5033184;28;20045;-89
2020/12/16 01:25:20;;;;;;;49.90;27.27;;;2.20;99.90;;;;;;5019223;28;20208;-89
2020/12/16 01:27:52;;;;;;;52.73;26.00;;;2.20;99.90;;;;;;4990215;28;20084;-89
2020/12/16 01:30:17;;;;;;;44.60;26.13;;;2.20;99.90;;;;;;5023095;28;20041;-90
2020/12/16 01:32:43;;;;;;;54.17;28.43;;;2.20;99.90;;;;;;5022383;28;20033;-89
2020/12/16 01:35:08;;;;;;;51.40;27.47;;;2.20;99.90;;;;;;5025375;28;20379;-89
2020/12/16 01:37:35;;;;;;;49.80;27.20;;;2.20;99.90;;;;;;5016878;28;20378;-90
2020/12/16 01:40:03;;;;;;;48.40;28.00;;;2.10;99.90;;;;;;5036930;28;20026;-90
2020/12/16 01:42:29;;;;;;;45.93;26.60;;;2.10;99.90;;;;;;5022616;28;20029;-90
2020/12/16 01:44:54;;;;;;;41.33;24.83;;;2.10;99.90;;;;;;5019150;28;20029;-89
2020/12/16 01:47:20;;;;;;;47.03;27.27;;;2.00;99.90;;;;;;5036195;28;20029;-89
2020/12/16 01:49:46;;;;;;;44.80;25.13;;;2.00;99.90;;;;;;5034462;28;20029;-90
2020/12/16 01:52:19;;;;;;;48.33;25.73;;;1.90;99.90;;;;;;5036050;28;20104;-90
2020/12/16 01:54:46;;;;;;;44.00;25.43;;;1.90;99.90;;;;;;5022601;28;20030;-90
2020/12/16 01:57:13;;;;;;;49.60;25.27;;;1.90;99.90;;;;;;5018433;28;20017;-89
2020/12/16 01:59:39;;;;;;;51.17;27.53;;;1.90;99.90;;;;;;5018962;28;20034;-90
2020/12/16 02:02:07;;;;;;;46.27;25.47;;;1.90;99.90;;;;;;4999679;28;20026;-89
2020/12/16 02:04:44;;;;;;;55.30;26.27;;;1.90;99.90;;;;;;4999885;28;20054;-90
2020/12/16 02:07:11;;;;;;;56.97;25.20;;;1.90;99.90;;;;;;5017383;28;20490;-89
2020/12/16 02:09:39;;;;;;;86.50;26.53;;;1.80;99.90;;;;;;5016785;28;20467;-89
2020/12/16 02:12:28;;;;;;;65.47;23.90;;;1.80;99.90;;;;;;5016734;28;20367;-90
2020/12/16 02:14:54;;;;;;;43.97;24.03;;;1.70;99.90;;;;;;5017161;28;20032;-90
2020/12/16 02:17:19;;;;;;;43.27;24.00;;;1.70;99.90;;;;;;5016844;28;20034;-89
2020/12/16 02:19:59;;;;;;;43.20;25.97;;;1.70;99.90;;;;;;5017074;28;20026;-90
2020/12/16 02:22:25;;;;;;;50.60;26.53;;;1.70;99.90;;;;;;5017181;28;20161;-91
2020/12/16 02:24:55;;;;;;;49.17;27.20;;;1.60;99.90;;;;;;5016696;28;20053;-89
2020/12/16 02:27:21;;;;;;;44.37;26.10;;;1.70;99.90;;;;;;5016786;28;20065;-91
2020/12/16 02:29:47;;;;;;;51.17;29.43;;;1.70;99.90;;;;;;5016884;28;20041;-90
2020/12/16 02:32:14;;;;;;;51.63;28.47;;;1.70;99.90;;;;;;5016536;28;20034;-90
2020/12/16 02:34:40;;;;;;;56.53;29.47;;;1.70;99.90;;;;;;5017153;28;20034;-91
2020/12/16 02:37:05;;;;;;;56.97;28.90;;;1.70;99.90;;;;;;5016202;28;20044;-91
2020/12/16 02:39:31;;;;;;;49.53;27.90;;;1.70;99.90;;;;;;4998661;28;20042;-91
2020/12/16 02:42:04;;;;;;;52.10;28.67;;;1.70;99.90;;;;;;5016414;28;20051;-90
2020/12/16 02:44:30;;;;;;;54.33;27.37;;;1.70;99.90;;;;;;5016551;28;20037;-90
2020/12/16 02:46:57;;;;;;;46.07;26.73;;;1.70;99.90;;;;;;4998521;28;20441;-91
2020/12/16 02:49:23;;;;;;;50.20;28.13;;;1.70;99.90;;;;;;5016135;28;20030;-90
2020/12/16 02:51:49;;;;;;;58.33;29.20;;;1.70;99.90;;;;;;5016679;28;20194;-90
2020/12/16 02:54:14;;;;;;;68.20;30.47;;;1.70;99.90;;;;;;5016094;28;20033;-90
2020/12/16 02:56:40;;;;;;;66.33;29.33;;;1.70;99.90;;;;;;5016312;28;20029;-90
2020/12/16 02:59:06;;;;;;;103.63;29.70;;;1.70;99.90;;;;;;5016247;28;20434;-91
2020/12/16 03:01:31;;;;;;;221.40;32.83;;;1.70;99.90;;;;;;5016851;28;20459;-90
2020/12/16 03:03:57;;;;;;;160.87;30.87;;;1.80;99.90;;;;;;5015999;28;20026;-91
2020/12/16 03:06:22;;;;;;;194.70;31.63;;;1.80;99.90;;;;;;5014308;28;20025;-90
2020/12/16 03:08:48;;;;;;;123.17;32.57;;;1.70;99.90;;;;;;5015974;28;20068;-90
2020/12/16 03:11:18;;;;;;;83.60;31.33;;;1.70;99.90;;;;;;5015967;28;20545;-92
2020/12/16 03:13:44;;;;;;;137.00;33.27;;;1.70;99.90;;;;;;5015828;28;20029;-90
2020/12/16 03:16:09;;;;;;;202.37;33.47;;;1.70;99.90;;;;;;5016140;28;20034;-90
2020/12/16 03:18:35;;;;;;;285.27;36.00;;;1.80;99.90;;;;;;5015857;28;20058;-89
2020/12/16 03:21:01;;;;;;;225.77;36.20;;;1.80;99.90;;;;;;5015704;28;20490;-91
2020/12/16 03:23:26;;;;;;;217.17;34.37;;;1.90;99.90;;;;;;5016003;28;20026;-90
2020/12/16 03:25:52;;;;;;;256.60;37.03;;;1.90;99.90;;;;;;5015394;28;20042;-90
2020/12/16 03:28:17;;;;;;;207.47;35.87;;;1.90;99.90;;;;;;5015499;28;20026;-90
2020/12/16 03:30:43;;;;;;;255.20;35.70;;;1.90;99.90;;;;;;5015413;28;20026;-90
2020/12/16 03:33:08;;;;;;;155.33;34.70;;;1.90;99.90;;;;;;5015524;28;20107;-91
2020/12/16 03:35:34;;;;;;;182.30;33.93;;;1.90;99.90;;;;;;5013555;28;20068;-90
2020/12/16 03:37:59;;;;;;;211.20;32.67;;;1.90;99.90;;;;;;5015179;28;20555;-90
2020/12/16 03:40:25;;;;;;;177.30;32.53;;;1.90;99.90;;;;;;5013400;28;20512;-90
2020/12/16 03:42:51;;;;;;;113.83;30.73;;;1.90;99.90;;;;;;5014837;28;20022;-90
2020/12/16 03:45:16;;;;;;;137.77;32.43;;;1.90;99.90;;;;;;5014787;28;20038;-90
2020/12/16 03:47:42;;;;;;;135.27;31.07;;;1.90;99.90;;;;;;5013686;28;20458;-91
2020/12/16 03:50:07;;;;;;;149.83;31.00;;;1.90;99.90;;;;;;5015573;28;20034;-90
2020/12/16 03:52:33;;;;;;;272.50;34.20;;;1.90;99.90;;;;;;5013409;28;20374;-90
2020/12/16 03:54:58;;;;;;;175.73;31.43;;;1.90;99.90;;;;;;5013466;28;20117;-90
2020/12/16 03:57:24;;;;;;;170.13;30.43;;;1.90;99.90;;;;;;5015319;28;20058;-90
2020/12/16 03:59:49;;;;;;;184.07;30.67;;;1.90;99.90;;;;;;5015300;28;20030;-91
2020/12/16 04:02:15;;;;;;;157.63;30.57;;;1.90;99.90;;;;;;5013491;28;20026;-92
2020/12/16 04:04:40;;;;;;;106.90;29.33;;;1.90;99.90;;;;;;5015671;28;20030;-91
2020/12/16 04:07:06;;;;;;;194.93;29.13;;;1.90;99.90;;;;;;5014992;28;20385;-90
2020/12/16 04:09:31;;;;;;;134.30;25.73;;;1.90;99.90;;;;;;5014846;28;20374;-90
2020/12/16 04:11:57;;;;;;;205.87;26.80;;;1.90;99.90;;;;;;5014874;28;20037;-91
2020/12/16 04:14:22;;;;;;;196.30;25.97;;;1.90;99.90;;;;;;5014453;28;20034;-92
2020/12/16 04:16:48;;;;;;;106.37;24.80;;;1.90;99.90;;;;;;5014794;28;20109;-90
2020/12/16 04:19:15;;;;;;;118.43;24.20;;;1.90;99.90;;;;;;5012998;28;20029;-91
2020/12/16 04:21:40;;;;;;;164.27;26.27;;;1.90;99.90;;;;;;5015356;28;20053;-92
2020/12/16 04:24:06;;;;;;;263.23;43.73;;;1.90;99.90;;;;;;5014931;28;20084;-91
2020/12/16 04:26:32;;;;;;;220.07;28.27;;;1.90;99.90;;;;;;5014837;28;20372;-90
2020/12/16 04:28:57;;;;;;;160.83;25.83;;;1.90;99.90;;;;;;5014712;28;20026;-91
2020/12/16 04:31:23;;;;;;;226.90;25.93;;;1.90;99.90;;;;;;5013699;28;20033;-90
2020/12/16 04:33:48;;;;;;;147.10;26.70;;;1.90;99.90;;;;;;5014368;28;20025;-90
2020/12/16 04:36:14;;;;;;;169.43;25.97;;;2.00;99.90;;;;;;5014358;28;20053;-90
2020/12/16 04:38:40;;;;;;;211.40;29.57;;;2.00;99.90;;;;;;5013644;28;20084;-83
2020/12/16 04:41:07;;;;;;;114.63;27.70;;;1.90;99.90;;;;;;5012989;28;20030;-83
2020/12/16 04:43:40;;;;;;;361.67;77.47;;;2.00;99.90;;;;;;5011597;28;20030;-83
2020/12/16 04:46:05;;;;;;;285.70;34.13;;;2.00;99.90;;;;;;5012992;28;20029;-83
2020/12/16 04:48:32;;;;;;;200.13;36.73;;;2.00;99.90;;;;;;5028280;28;20022;-82
2020/12/16 04:51:01;;;;;;;157.13;28.87;;;1.90;99.90;;;;;;5025408;28;20036;-82
2020/12/16 04:53:27;;;;;;;219.17;27.70;;;1.90;99.90;;;;;;5013129;28;20438;-82
2020/12/16 04:55:57;;;;;;;227.97;29.53;;;1.90;99.90;;;;;;5013348;28;20062;-82
2020/12/16 04:58:22;;;;;;;261.97;29.80;;;1.90;99.90;;;;;;5012960;28;20425;-82
2020/12/16 05:00:48;;;;;;;224.63;30.77;;;1.90;99.90;;;;;;5031208;28;20076;-82
2020/12/16 05:03:13;;;;;;;207.63;28.50;;;1.90;99.90;;;;;;5022233;28;20029;-82
2020/12/16 05:05:39;;;;;;;94.27;24.60;;;1.90;99.90;;;;;;5016741;28;20049;-82
2020/12/16 05:08:12;;;;;;;167.67;30.77;;;1.90;99.90;;;;;;5016727;28;20046;-82
2020/12/16 05:10:40;;;;;;;68.40;23.27;;;1.90;99.90;;;;;;5016564;28;20080;-82
2020/12/16 05:13:08;;;;;;;108.50;23.73;;;1.90;99.90;;;;;;5016638;28;20112;-82
2020/12/16 05:15:38;;;;;;;107.30;23.47;;;1.90;99.90;;;;;;5016584;28;20068;-82
2020/12/16 05:18:16;;;;;;;123.33;24.53;;;1.90;99.90;;;;;;5017113;28;20443;-82
2020/12/16 05:20:48;;;;;;;88.63;25.00;;;1.90;99.90;;;;;;5015970;28;20534;-82
2020/12/16 05:23:15;;;;;;;91.17;23.47;;;1.90;99.90;;;;;;4999437;28;20033;-81
2020/12/16 05:26:02;;;;;;;52.27;22.67;;;1.90;99.90;;;;;;5015670;28;20050;-81
2020/12/16 05:28:34;;;;;;;92.27;24.87;;;1.90;99.90;;;;;;4984753;28;20497;-82
2020/12/16 05:31:02;;;;;;;114.70;23.97;;;1.90;99.90;;;;;;5015860;28;20518;-81
2020/12/16 05:33:29;;;;;;;132.83;24.17;;;1.90;99.90;;;;;;5017199;28;20065;-81
2020/12/16 05:35:55;;;;;;;113.23;24.67;;;1.90;99.90;;;;;;4999465;28;20037;-83
2020/12/16 05:38:22;;;;;;;157.30;27.47;;;1.90;99.90;;;;;;5002609;28;20027;-83
2020/12/16 05:40:48;;;;;;;136.80;25.17;;;1.90;99.90;;;;;;5005229;28;20022;-83
2020/12/16 05:43:28;;;;;;;92.27;25.67;;;1.90;99.90;;;;;;5010191;28;20441;-83
2020/12/16 05:45:54;;;;;;;112.30;27.73;;;1.90;99.90;;;;;;4986404;28;20109;-83
2020/12/16 05:48:19;;;;;;;93.97;35.40;;;1.90;99.90;;;;;;5015823;28;20036;-81
2020/12/16 05:50:53;;;;;;;152.60;51.63;;;1.90;99.90;;;;;;5016406;28;20041;-81
2020/12/16 05:53:29;;;;;;;120.43;27.30;;;1.90;99.90;;;;;;5015593;28;20120;-81
2020/12/16 05:55:56;;;;;;;98.97;26.07;;;1.90;99.90;;;;;;5013993;28;20026;-81
2020/12/16 05:58:23;;;;;;;104.63;27.00;;;1.90;99.90;;;;;;5015729;28;20045;-81
2020/12/16 06:01:03;;;;;;;90.87;28.67;;;1.90;99.90;;;;;;5015548;28;20029;-82
2020/12/16 06:03:30;;;;;;;118.47;36.30;;;1.90;99.90;;;;;;4978345;28;20467;-82
2020/12/16 06:06:04;;;;;;;139.23;30.23;;;1.90;99.90;;;;;;4983318;28;20021;-82
2020/12/16 06:08:38;;;;;;;90.20;26.77;;;1.90;99.90;;;;;;5015471;28;20044;-82
2020/12/16 06:11:05;;;;;;;65.40;24.92;;;1.90;99.90;;;;;;5012875;28;20080;-82
2020/12/16 06:13:31;;;;;;;69.53;24.63;;;1.90;99.90;;;;;;5009484;28;20026;-82
2020/12/16 06:16:00;;;;;;;51.50;22.53;;;1.90;99.90;;;;;;5013229;28;20034;-83
2020/12/16 06:18:33;;;;;;;45.90;22.47;;;1.90;99.90;;;;;;5015346;28;20104;-83
2020/12/16 06:21:00;;;;;;;57.70;24.50;;;1.90;99.90;;;;;;5015457;28;20030;-82
2020/12/16 06:23:27;;;;;;;54.47;22.87;;;1.90;99.90;;;;;;5015423;28;20047;-82
2020/12/16 06:25:54;;;;;;;55.20;23.77;;;1.90;99.90;;;;;;5015089;28;20093;-82
2020/12/16 06:28:20;;;;;;;58.17;23.13;;;1.90;99.90;;;;;;4997694;28;20084;-82
2020/12/16 06:31:11;;;;;;;60.87;22.37;;;1.90;99.90;;;;;;5015197;28;20037;-81
2020/12/16 06:33:52;;;;;;;42.50;21.20;;;1.90;99.90;;;;;;5015001;28;20374;-82
2020/12/16 06:36:19;;;;;;;52.00;23.23;;;1.90;99.90;;;;;;5013548;28;20026;-82
2020/12/16 06:38:49;;;;;;;54.60;21.73;;;1.90;99.90;;;;;;5015200;28;20022;-83
2020/12/16 06:41:28;;;;;;;52.77;26.50;;;1.90;99.90;;;;;;5015201;28;20022;-82
2020/12/16 06:44:07;;;;;;;47.03;23.57;;;1.90;99.90;;;;;;5010346;28;20069;-82
2020/12/16 06:46:33;;;;;;;44.20;24.30;;;1.90;99.90;;;;;;5015137;28;20040;-86
2020/12/16 06:49:03;;;;;;;42.43;22.57;;;1.90;99.90;;;;;;5013738;28;20474;-86
2020/12/16 06:51:36;;;;;;;48.27;27.53;;;1.90;99.90;;;;;;5010984;28;20505;-84
2020/12/16 06:54:07;;;;;;;56.30;23.33;;;1.90;99.90;;;;;;5014344;28;20014;-84
2020/12/16 06:56:33;;;;;;;41.47;24.93;;;1.90;99.90;;;;;;5014627;28;20037;-84
2020/12/16 06:58:58;;;;;;;41.60;22.40;;;1.90;99.90;;;;;;5013457;28;20030;-85
2020/12/16 07:01:24;;;;;;;43.37;22.67;;;1.90;99.90;;;;;;5014903;28;20018;-85
2020/12/16 07:03:50;;;;;;;45.20;21.97;;;1.90;99.90;;;;;;5015007;28;20375;-85
2020/12/16 07:06:27;;;;;;;42.53;22.97;;;1.90;99.90;;;;;;5014709;28;20153;-85
2020/12/16 07:09:19;;;;;;;62.00;23.67;;;1.90;99.90;;;;;;5013320;28;20022;-85
2020/12/16 07:11:53;;;;;;;40.63;21.50;;;1.90;99.90;;;;;;5013259;28;20032;-86
2020/12/16 07:14:24;;;;;;;39.10;21.33;;;1.90;99.90;;;;;;5014559;28;20058;-84
2020/12/16 07:16:50;;;;;;;38.10;20.63;;;1.90;99.90;;;;;;5014987;28;20061;-85
2020/12/16 07:19:25;;;;;;;39.97;21.07;;;1.90;99.90;;;;;;5014718;28;20320;-85
2020/12/16 07:21:51;;;;;;;40.65;22.05;;;1.90;99.90;;;;;;5014413;28;20018;-85
2020/12/16 07:24:19;;;;;;;42.30;21.00;;;2.00;99.90;;;;;;4996624;28;20061;-84
2020/12/16 07:26:52;;;;;;;36.57;20.30;;;2.00;99.90;;;;;;5013773;28;20025;-86
2020/12/16 07:29:27;;;;;;;50.40;20.43;;;1.90;99.90;;;;;;5014280;28;20095;-85
2020/12/16 07:31:56;;;;;;;34.80;20.02;;;2.00;99.90;;;;;;5014263;28;20030;-86
2020/12/16 07:34:21;;;;;;;35.90;19.83;;;2.00;99.90;;;;;;4996566;28;20036;-85
2020/12/16 07:36:56;;;;;;;35.63;19.63;;;2.00;99.90;;;;;;5014180;28;20379;-85
2020/12/16 07:39:22;;;;;;;36.35;19.48;;;2.00;99.90;;;;;;5014905;28;20109;-86
2020/12/16 07:41:48;;;;;;;36.07;19.17;;;2.00;99.90;;;;;;5014319;28;20111;-86
2020/12/16 07:44:13;;;;;;;42.90;18.83;;;2.00;99.90;;;;;;5014289;28;20022;-86
2020/12/16 07:46:39;;;;;;;43.27;17.93;;;2.00;99.90;;;;;;5014469;28;20084;-88
2020/12/16 07:49:05;;;;;;;57.90;19.37;;;2.00;99.90;;;;;;5014311;28;20044;-86
2020/12/16 07:51:30;;;;;;;32.30;19.50;;;1.90;99.90;;;;;;4996519;28;20026;-86
2020/12/16 07:53:56;;;;;;;41.13;18.73;;;2.00;99.90;;;;;;5014435;28;20026;-86
2020/12/16 07:56:21;;;;;;;29.53;18.60;;;2.00;99.90;;;;;;4996553;28;20021;-86
2020/12/16 07:58:47;;;;;;;114.40;56.67;;;1.90;99.90;;;;;;5014159;28;20399;-86
2020/12/16 08:01:18;;;;;;;176.13;72.13;;;2.00;99.90;;;;;;5014474;28;20018;-86
2020/12/16 08:03:45;;;;;;;65.87;31.53;;;2.00;99.90;;;;;;5014237;28;20017;-86
2020/12/16 08:06:11;;;;;;;37.37;20.40;;;2.00;99.90;;;;;;5014143;28;20030;-86
2020/12/16 08:08:48;;;;;;;32.80;20.00;;;2.00;99.90;;;;;;5013884;28;20045;-86
2020/12/16 08:11:22;;;;;;;27.50;18.03;;;2.10;99.90;;;;;;5013885;28;20036;-86
2020/12/16 08:13:48;;;;;;;41.83;18.43;;;2.10;99.90;;;;;;4996399;28;20030;-86
2020/12/16 08:16:15;;;;;;;31.97;17.77;;;2.10;99.90;;;;;;5013834;28;20025;-87
2020/12/16 08:18:46;;;;;;;31.40;18.07;;;2.20;99.90;;;;;;5013666;28;20026;-86
2020/12/16 08:21:18;;;;;;;38.57;18.37;;;2.30;99.90;;;;;;5013978;28;20017;-86
2020/12/16 08:23:44;;;;;;;51.73;16.80;;;2.30;99.90;;;;;;4996180;28;20410;-86
2020/12/16 08:26:09;;;;;;;36.40;17.77;;;2.40;99.90;;;;;;5013689;28;20096;-86
2020/12/16 08:28:35;;;;;;;30.03;17.30;;;2.40;99.90;;;;;;5013511;28;20378;-86
2020/12/16 08:31:02;;;;;;;52.40;19.77;;;2.50;99.90;;;;;;5013659;28;20025;-86
2020/12/16 08:33:30;;;;;;;61.20;18.57;;;2.50;99.90;;;;;;5013650;28;20029;-87
2020/12/16 08:36:09;;;;;;;30.60;17.83;;;2.60;99.90;;;;;;5013556;28;20026;-87
2020/12/16 08:38:40;;;;;;;37.07;18.17;;;2.60;99.90;;;;;;5016259;28;20114;-87
2020/12/16 08:41:08;;;;;;;53.90;18.53;;;2.70;99.90;;;;;;5017837;28;20097;-86
2020/12/16 08:43:36;;;;;;;33.67;18.57;;;2.70;99.90;;;;;;5020855;28;20022;-86
2020/12/16 08:46:14;;;;;;;41.10;18.70;;;2.80;99.90;;;;;;5019697;28;20034;-87
2020/12/16 08:48:44;;;;;;;29.27;18.50;;;2.90;99.90;;;;;;5037234;28;20109;-86
2020/12/16 08:51:12;;;;;;;34.60;19.23;;;3.00;99.90;;;;;;5023715;28;20112;-86
2020/12/16 08:53:57;;;;;;;29.73;19.23;;;3.10;99.90;;;;;;5017476;28;20066;-86
2020/12/16 08:56:25;;;;;;;31.45;18.92;;;3.00;99.90;;;;;;5015935;28;20382;-81
2020/12/16 08:59:05;;;;;;;33.80;19.37;;;3.10;99.90;;;;;;5017378;28;20454;-82
2020/12/16 09:01:31;;;;;;;32.47;17.40;;;3.20;99.90;;;;;;5018075;23;20062;-85
2020/12/16 09:03:57;;;;;;;29.27;18.07;;;3.20;99.90;;;;;;5002907;28;20675;-86
2020/12/16 09:06:22;;;;;;;34.53;18.43;;;3.30;99.90;;;;;;5004213;28;20030;-85
2020/12/16 09:08:48;;;;;;;29.67;18.30;;;3.40;99.90;;;;;;5001769;28;20041;-86
2020/12/16 09:11:17;;;;;;;26.60;17.73;;;3.50;99.90;;;;;;5006423;28;20077;-86
2020/12/16 09:13:43;;;;;;;25.07;16.70;;;3.50;99.90;;;;;;4997970;28;20594;-86
2020/12/16 09:16:08;;;;;;;24.77;16.37;;;3.60;99.90;;;;;;5002148;28;20030;-86
2020/12/16 09:18:34;;;;;;;23.87;16.17;;;3.70;99.90;;;;;;4998476;28;20815;-86
2020/12/16 09:21:00;;;;;;;21.23;15.43;;;3.60;99.90;;;;;;4997189;28;20080;-86
2020/12/16 09:23:28;;;;;;;22.67;15.57;;;3.70;99.90;;;;;;4986598;28;20108;-86
2020/12/16 09:25:55;;;;;;;27.23;17.13;;;3.80;99.90;;;;;;5010895;28;20490;-86
2020/12/16 09:28:38;;;;;;;25.97;16.30;;;3.60;99.90;;;;;;5002365;28;20071;-86
2020/12/16 09:31:15;;;;;;;26.40;17.37;;;3.60;99.90;;;;;;5001204;28;20022;-86
2020/12/16 09:33:41;;;;;;;24.13;16.63;;;3.70;99.90;;;;;;4991181;28;20018;-86
2020/12/16 09:36:07;;;;;;;23.50;16.73;;;3.60;99.90;;;;;;4999152;28;20133;-86
2020/12/16 09:38:32;;;;;;;26.97;18.20;;;3.60;99.90;;;;;;5010005;28;20101;-86
2020/12/16 09:41:00;;;;;;;25.73;17.27;;;3.70;99.90;;;;;;5010795;28;20029;-86
2020/12/16 09:43:39;;;;;;;24.97;17.63;;;3.70;99.90;;;;;;5001666;28;20650;-85
2020/12/16 09:46:24;;;;;;;26.47;18.23;;;3.70;99.90;;;;;;5000183;28;20129;-86
2020/12/16 09:48:59;;;;;;;27.67;18.30;;;3.70;99.90;;;;;;4994849;28;20030;-86
2020/12/16 09:51:25;;;;;;;28.07;18.53;;;3.70;99.90;;;;;;4977072;28;20026;-85
2020/12/16 09:53:51;;;;;;;28.80;19.30;;;3.80;99.90;;;;;;5010392;28;20493;-86
2020/12/16 09:56:25;;;;;;;27.27;18.07;;;3.80;99.90;;;;;;5013133;28;20014;-86
2020/12/16 09:58:51;;;;;;;25.47;17.07;;;3.90;99.90;;;;;;5012016;28;20476;-85
2020/12/16 10:01:17;;;;;;;26.83;16.87;;;4.00;99.90;;;;;;4984390;28;20056;-86
2020/12/16 10:03:43;;;;;;;25.50;17.20;;;4.10;99.90;;;;;;4996179;28;20064;-86
2020/12/16 10:06:12;;;;;;;22.27;16.00;;;4.20;99.90;;;;;;4996514;28;20030;-86
2020/12/16 10:08:39;;;;;;;22.93;16.43;;;4.20;99.90;;;;;;4996112;28;20471;-86
2020/12/16 10:11:05;;;;;;;22.80;15.77;;;4.20;99.90;;;;;;4996324;28;20022;-86
2020/12/16 10:13:30;;;;;;;23.90;15.47;;;4.30;99.90;;;;;;4996252;28;20320;-87
2020/12/16 10:15:56;;;;;;;22.83;15.40;;;4.30;99.90;;;;;;4979347;28;20026;-87
2020/12/16 10:18:22;;;;;;;23.13;15.53;;;4.40;99.90;;;;;;4996687;28;20030;-87
2020/12/16 10:20:47;;;;;;;22.57;15.97;;;4.20;99.90;;;;;;4996326;28;20486;-87
2020/12/16 10:23:13;;;;;;;21.07;14.00;;;4.40;99.90;;;;;;4996410;28;20018;-86
2020/12/16 10:25:38;;;;;;;20.23;14.57;;;4.50;99.90;;;;;;4996396;28;20034;-87
2020/12/16 10:28:09;;;;;;;19.73;14.57;;;4.50;99.90;;;;;;4996607;28;20030;-87
2020/12/16 10:30:35;;;;;;;19.20;13.83;;;4.60;99.90;;;;;;4996268;28;20030;-87
2020/12/16 10:33:00;;;;;;;21.03;14.27;;;4.50;99.90;;;;;;4996154;28;20104;-86
2020/12/16 10:35:26;;;;;;;20.77;14.80;;;4.60;99.90;;;;;;4995814;28;20113;-87
2020/12/16 10:37:52;;;;;;;23.17;15.43;;;4.70;99.90;;;;;;4995951;28;20061;-87
2020/12/16 10:40:18;;;;;;;21.10;16.10;;;4.80;99.90;;;;;;4995717;28;20019;-86
2020/12/16 10:42:43;;;;;;;23.17;15.97;;;4.80;99.90;;;;;;4978715;28;20081;-86
2020/12/16 10:45:09;;;;;;;25.07;16.33;;;4.80;99.90;;;;;;4995657;28;20037;-86
2020/12/16 10:47:34;;;;;;;22.87;16.30;;;4.80;99.90;;;;;;4995900;28;20038;-86
2020/12/16 10:50:00;;;;;;;27.97;17.63;;;4.80;99.90;;;;;;4995593;28;20481;-86
2020/12/16 10:52:25;;;;;;;21.83;16.13;;;4.80;99.90;;;;;;5001111;28;20474;-86
2020/12/16 10:54:51;;;;;;;22.57;15.77;;;4.90;99.90;;;;;;5014518;28;20112;-85
2020/12/16 10:57:19;;;;;;;21.07;15.47;;;4.90;99.90;;;;;;4993447;28;20025;-87
2020/12/16 10:59:47;;;;;;;20.77;14.83;;;5.00;99.90;;;;;;4995144;28;20093;-87
2020/12/16 11:02:12;;;;;;;18.30;13.20;;;4.90;99.90;;;;;;4994503;28;20104;-82
2020/12/16 11:04:38;;;;;;;20.53;13.80;;;5.00;99.90;;;;;;4993960;28;20415;-87
2020/12/16 11:07:03;;;;;;;13.20;10.70;;;5.10;99.90;;;;;;4994648;28;20042;-84
2020/12/16 11:09:29;;;;;;;16.60;11.70;;;5.20;99.90;;;;;;4977300;28;20030;-85
2020/12/16 11:11:55;;;;;;;21.43;15.70;;;5.30;99.90;;;;;;4997675;28;20042;-84
2020/12/16 11:14:21;;;;;;;32.63;20.90;;;5.30;99.90;;;;;;4994346;28;20022;-84
2020/12/16 11:16:47;;;;;;;42.60;26.10;;;5.30;99.90;;;;;;4994884;28;20037;-84
2020/12/16 11:19:16;;;;;;;21.33;15.10;;;5.30;99.90;;;;;;4994848;28;20034;-84
2020/12/16 11:21:44;;;;;;;14.97;11.50;;;5.30;99.90;;;;;;5006018;28;20089;-87
2020/12/16 11:24:11;;;;;;;14.57;12.47;;;5.30;99.90;;;;;;4976463;28;20027;-88
2020/12/16 11:26:38;;;;;;;12.90;11.07;;;5.30;99.90;;;;;;5006176;28;20011;-88
2020/12/16 11:29:06;;;;;;;14.83;11.73;;;5.20;99.90;;;;;;5002989;28;20095;-88
2020/12/16 11:31:31;;;;;;;14.03;11.50;;;5.10;99.90;;;;;;4994266;28;20463;-88
2020/12/16 11:33:57;;;;;;;13.30;11.23;;;5.10;99.90;;;;;;4994393;28;20026;-88
2020/12/16 11:36:23;;;;;;;13.07;10.10;;;5.10;99.90;;;;;;4985735;28;20031;-90
2020/12/16 11:38:48;;;;;;;17.43;11.70;;;5.10;99.90;;;;;;4994759;28;20033;-90
2020/12/16 11:41:14;;;;;;;13.90;11.13;;;5.10;99.90;;;;;;5003943;28;20348;-89
2020/12/16 11:43:39;;;;;;;14.80;10.60;;;5.10;99.90;;;;;;4995057;28;20546;-89
2020/12/16 11:46:05;;;;;;;14.03;10.53;;;5.10;99.90;;;;;;4994485;28;20494;-89
2020/12/16 11:48:30;;;;;;;13.37;10.67;;;5.10;99.90;;;;;;4994441;28;20630;-90
2020/12/16 11:50:56;;;;;;;18.33;11.57;;;5.20;99.90;;;;;;5002549;28;20026;-88
2020/12/16 11:53:22;;;;;;;14.70;10.60;;;5.20;99.90;;;;;;4997065;28;20035;-89
2020/12/16 11:55:48;;;;;;;15.03;10.57;;;5.10;99.90;;;;;;5008957;28;20045;-89
2020/12/16 11:58:14;;;;;;;16.23;11.50;;;5.20;99.90;;;;;;4981808;28;20073;-89
2020/12/16 12:00:40;;;;;;;13.03;11.00;;;5.20;99.90;;;;;;5000990;28;20034;-90
2020/12/16 12:03:05;;;;;;;14.83;11.70;;;5.20;99.90;;;;;;4999084;28;20032;-90
2020/12/16 12:05:31;;;;;;;13.60;10.33;;;5.20;99.90;;;;;;5001729;28;20067;-90
2020/12/16 12:07:56;;;;;;;13.83;10.90;;;5.20;99.90;;;;;;4987913;28;20052;-90
2020/12/16 12:10:22;;;;;;;14.90;10.97;;;5.20;99.90;;;;;;5000785;28;20034;-89
2020/12/16 12:12:47;;;;;;;14.10;11.10;;;5.20;99.90;;;;;;5005407;28;20104;-90
2020/12/16 12:15:13;;;;;;;13.20;10.33;;;5.20;99.90;;;;;;5001138;28;20437;-90
2020/12/16 12:17:38;;;;;;;17.10;10.83;;;5.20;99.90;;;;;;4999372;28;20363;-90
2020/12/16 12:20:05;;;;;;;14.37;10.93;;;5.20;99.90;;;;;;4998575;28;20047;-89
2020/12/16 12:22:30;;;;;;;16.07;10.73;;;5.30;99.90;;;;;;4994989;28;20031;-89
2020/12/16 12:24:56;;;;;;;17.47;11.27;;;5.30;99.90;;;;;;4976295;28;20019;-90
2020/12/16 12:27:22;;;;;;;15.43;11.13;;;5.40;99.90;;;;;;4993421;28;20034;-89
2020/12/16 12:29:47;;;;;;;14.43;11.23;;;5.50;99.90;;;;;;5007938;28;20037;-89
2020/12/16 12:32:14;;;;;;;14.97;11.30;;;5.50;99.90;;;;;;5004886;28;20430;-89
2020/12/16 12:34:44;;;;;;;14.60;10.77;;;5.50;99.90;;;;;;4999671;28;20215;-85
2020/12/16 12:37:10;;;;;;;15.23;10.47;;;5.50;99.90;;;;;;4994222;28;20022;-84
2020/12/16 12:39:35;;;;;;;15.30;10.73;;;5.50;99.90;;;;;;4994051;28;20359;-84